Time;durP1;ratioP1;P1;durP2;ratioP2;P2;SDS_P1;SDS_P2;PMS_P1;PMS_P2;Temp;Humidity;BMP_temperature;BMP_pressure;BME280_temperature;BME280_humidity;BME280_pressure;Samples;Min_cycle;Max_cycle;Signal;HPM_P1;HPM_P2
2023/08/28 00:00:35;;;;;;;2.97;1.00;;;14.20;99.90;;;;;;5030883;28;20048;-77
2023/08/28 00:03:00;;;;;;;0.98;0.70;;;14.20;99.90;;;;;;5048744;28;20047;-76
2023/08/28 00:05:29;;;;;;;1.20;1.10;;;14.10;99.90;;;;;;5066208;28;20044;-76
2023/08/28 00:07:55;;;;;;;1.38;1.10;;;14.10;99.90;;;;;;5066195;28;20078;-75
2023/08/28 00:10:21;;;;;;;2.13;0.90;;;14.10;99.90;;;;;;5048197;28;20040;-76
2023/08/28 00:12:46;;;;;;;0.88;0.70;;;14.00;99.90;;;;;;5065466;28;20398;-76
2023/08/28 00:15:12;;;;;;;0.70;0.70;;;14.00;99.90;;;;;;5031799;28;20460;-76
2023/08/28 00:17:38;;;;;;;1.10;1.00;;;14.10;99.90;;;;;;5047479;28;20045;-77
2023/08/28 00:20:08;;;;;;;1.38;0.77;;;14.10;99.90;;;;;;5066825;28;20032;-77
2023/08/28 00:22:35;;;;;;;3.15;0.90;;;14.00;99.90;;;;;;5047940;28;20074;-76
2023/08/28 00:25:01;;;;;;;0.80;0.70;;;14.00;99.90;;;;;;5031649;28;20040;-75
2023/08/28 00:27:26;;;;;;;2.90;0.98;;;14.10;99.90;;;;;;5047598;28;20056;-77
2023/08/28 00:29:52;;;;;;;0.90;0.80;;;14.10;99.90;;;;;;5047698;28;20041;-77
2023/08/28 00:32:17;;;;;;;1.40;1.10;;;14.10;99.90;;;;;;5046469;28;20127;-75
2023/08/28 00:34:43;;;;;;;5.85;1.20;;;14.10;99.90;;;;;;5065030;28;20491;-76
2023/08/28 00:37:09;;;;;;;1.80;1.15;;;14.10;99.90;;;;;;5047677;28;20056;-77
2023/08/28 00:39:34;;;;;;;1.15;1.00;;;14.10;99.90;;;;;;5066310;28;20033;-76
2023/08/28 00:42:00;;;;;;;1.23;0.98;;;14.10;99.90;;;;;;5064931;28;20173;-76
2023/08/28 00:44:25;;;;;;;0.60;0.60;;;14.10;99.90;;;;;;5065460;28;20048;-76
2023/08/28 00:46:51;;;;;;;1.63;0.85;;;14.00;99.90;;;;;;5063180;28;20051;-76
2023/08/28 00:49:17;;;;;;;1.00;0.90;;;14.00;99.90;;;;;;5065123;28;20607;-75
2023/08/28 00:51:43;;;;;;;1.85;0.98;;;14.00;99.90;;;;;;5031291;28;20060;-76
2023/08/28 00:54:09;;;;;;;0.82;0.82;;;13.90;99.90;;;;;;5046601;28;20049;-77
2023/08/28 00:56:36;;;;;;;1.27;0.82;;;13.90;99.90;;;;;;5047293;28;20043;-76
2023/08/28 00:59:02;;;;;;;1.45;1.13;;;13.80;99.90;;;;;;5030883;28;20033;-77
2023/08/28 01:01:28;;;;;;;4.45;1.40;;;13.80;99.90;;;;;;5063578;28;20067;-75
2023/08/28 01:03:53;;;;;;;2.45;1.20;;;13.80;99.90;;;;;;5046190;28;20045;-75
2023/08/28 01:06:38;;;;;;;0.90;0.90;;;13.70;99.90;;;;;;5026189;28;20049;-76
2023/08/28 01:09:27;;;;;;;0.70;0.70;;;13.70;99.90;;;;;;5039266;28;20049;-77
2023/08/28 01:12:06;;;;;;;1.83;1.08;;;13.70;99.90;;;;;;5115586;22;20044;-77
2023/08/28 01:14:36;;;;;;;1.25;1.05;;;13.70;99.90;;;;;;5056817;28;20068;-77
2023/08/28 01:17:06;;;;;;;1.63;1.20;;;13.60;99.90;;;;;;5047483;28;20040;-76
2023/08/28 01:19:35;;;;;;;3.33;1.38;;;13.60;99.90;;;;;;5033386;28;20122;-77
2023/08/28 01:22:41;;;;;;;6.85;1.17;;;13.60;99.90;;;;;;5060235;28;20051;-77
2023/08/28 01:25:09;;;;;;;1.23;1.13;;;13.60;99.90;;;;;;5034181;28;20088;-77
2023/08/28 01:27:39;;;;;;;2.50;0.82;;;13.50;99.90;;;;;;5039432;28;20120;-76
2023/08/28 01:30:12;;;;;;;0.85;0.80;;;13.50;99.90;;;;;;5044904;28;20048;-76
2023/08/28 01:32:39;;;;;;;1.02;0.90;;;13.50;99.90;;;;;;5034567;28;20049;-77
2023/08/28 01:35:14;;;;;;;0.75;0.75;;;13.50;99.90;;;;;;5055841;28;20040;-76
2023/08/28 01:38:02;;;;;;;0.98;0.95;;;13.50;99.90;;;;;;5052297;28;20448;-76
2023/08/28 01:41:17;;;;;;;2.53;1.00;;;13.40;99.90;;;;;;5056462;28;20083;-76
2023/08/28 01:43:46;;;;;;;1.58;1.10;;;13.50;99.90;;;;;;5058210;28;20101;-76
2023/08/28 01:46:12;;;;;;;1.35;1.23;;;13.50;99.90;;;;;;5061142;28;20421;-75
2023/08/28 01:48:45;;;;;;;1.92;1.10;;;13.50;99.90;;;;;;5046572;28;20052;-78
2023/08/28 01:51:11;;;;;;;1.80;1.17;;;13.50;99.90;;;;;;5051120;28;20078;-76
2023/08/28 01:53:37;;;;;;;3.08;1.15;;;13.50;99.90;;;;;;5052699;28;20052;-77
2023/08/28 01:56:08;;;;;;;3.30;1.17;;;13.40;99.90;;;;;;5051960;28;20052;-75
2023/08/28 01:58:37;;;;;;;1.08;0.98;;;13.40;99.90;;;;;;5046662;28;20128;-75
2023/08/28 02:01:02;;;;;;;1.90;1.40;;;13.40;99.90;;;;;;5053095;28;20502;-76
2023/08/28 02:03:30;;;;;;;1.00;0.90;;;13.40;99.90;;;;;;5047637;28;20047;-75
2023/08/28 02:05:55;;;;;;;1.45;1.00;;;13.40;99.90;;;;;;5063001;28;20105;-75
2023/08/28 02:08:21;;;;;;;1.30;1.20;;;13.40;99.90;;;;;;5055483;28;20052;-75
2023/08/28 02:10:47;;;;;;;1.70;1.23;;;13.40;99.90;;;;;;5044447;28;20422;-76
2023/08/28 02:13:12;;;;;;;1.23;1.02;;;13.40;99.90;;;;;;5043884;28;20144;-76
2023/08/28 02:15:39;;;;;;;3.38;1.60;;;13.40;99.90;;;;;;5049784;28;20067;-77
2023/08/28 02:18:05;;;;;;;0.82;0.70;;;13.40;99.90;;;;;;5065260;28;20042;-76
2023/08/28 02:20:31;;;;;;;1.15;0.88;;;13.40;99.90;;;;;;5062080;28;20725;-76
2023/08/28 02:22:58;;;;;;;1.95;1.00;;;13.40;99.90;;;;;;5027210;28;20136;-76
2023/08/28 02:25:24;;;;;;;1.38;1.20;;;13.40;99.90;;;;;;5055814;28;20037;-76
2023/08/28 02:27:50;;;;;;;1.38;1.27;;;13.40;99.90;;;;;;5063749;28;20553;-75
2023/08/28 02:30:17;;;;;;;0.75;0.73;;;13.40;99.90;;;;;;5045874;28;20079;-76
2023/08/28 02:32:42;;;;;;;2.85;1.15;;;13.30;99.90;;;;;;5063544;28;20094;-75
2023/08/28 02:35:09;;;;;;;1.35;1.10;;;13.30;99.90;;;;;;5063600;28;20040;-77
2023/08/28 02:37:35;;;;;;;2.22;1.77;;;13.30;99.90;;;;;;5047770;28;20120;-76
2023/08/28 02:40:00;;;;;;;0.88;0.80;;;13.30;99.90;;;;;;5044649;28;20123;-77
2023/08/28 02:42:26;;;;;;;1.40;0.88;;;13.30;99.90;;;;;;5044127;28;20111;-76
2023/08/28 02:44:51;;;;;;;1.10;1.00;;;13.30;99.90;;;;;;5044899;28;20074;-75
2023/08/28 02:47:19;;;;;;;2.35;1.45;;;13.20;99.90;;;;;;5025571;28;20495;-76
2023/08/28 02:49:44;;;;;;;1.50;1.00;;;13.20;99.90;;;;;;5044636;28;20037;-76
2023/08/28 02:52:10;;;;;;;1.30;1.10;;;13.20;99.90;;;;;;5055738;28;20055;-76
2023/08/28 02:54:35;;;;;;;1.63;1.10;;;13.20;99.90;;;;;;5062555;28;20273;-76
2023/08/28 02:57:01;;;;;;;3.25;1.65;;;13.20;99.90;;;;;;5063463;28;20461;-75
2023/08/28 02:59:29;;;;;;;1.30;1.00;;;13.20;99.90;;;;;;5062606;28;20697;-77
2023/08/28 03:01:55;;;;;;;0.95;0.90;;;13.10;99.90;;;;;;5063169;28;20044;-75
2023/08/28 03:04:20;;;;;;;1.55;1.00;;;13.10;99.90;;;;;;5064001;28;20447;-75
2023/08/28 03:06:46;;;;;;;3.33;1.35;;;13.10;99.90;;;;;;5052336;28;20040;-76
2023/08/28 03:09:15;;;;;;;2.15;0.77;;;13.00;99.90;;;;;;5045307;28;20691;-75
2023/08/28 03:11:41;;;;;;;1.27;1.17;;;13.00;99.90;;;;;;5049401;28;20040;-75
2023/08/28 03:14:07;;;;;;;2.28;1.30;;;13.00;99.90;;;;;;5058686;28;20045;-75
2023/08/28 03:16:33;;;;;;;1.42;1.33;;;13.00;99.90;;;;;;5041915;28;20132;-76
2023/08/28 03:18:58;;;;;;;1.00;0.90;;;13.00;99.90;;;;;;5041034;28;20113;-76
2023/08/28 03:21:24;;;;;;;2.28;1.08;;;13.00;99.90;;;;;;5047491;28;20049;-75
2023/08/28 03:23:50;;;;;;;1.35;1.00;;;13.00;99.90;;;;;;5043719;28;20454;-75
2023/08/28 03:26:15;;;;;;;1.42;1.33;;;13.00;99.90;;;;;;5042905;28;20175;-76
2023/08/28 03:28:41;;;;;;;1.60;1.50;;;13.00;99.90;;;;;;5043520;28;20422;-76
2023/08/28 03:31:06;;;;;;;3.30;1.55;;;13.00;99.90;;;;;;5061214;28;20525;-76
2023/08/28 03:33:33;;;;;;;2.10;1.40;;;13.00;99.90;;;;;;5062109;28;20047;-75
2023/08/28 03:35:59;;;;;;;1.80;1.35;;;13.00;99.90;;;;;;5037710;28;20604;-76
2023/08/28 03:38:25;;;;;;;3.50;1.33;;;13.10;99.90;;;;;;5042775;28;20493;-76
2023/08/28 03:40:51;;;;;;;1.67;1.55;;;13.10;99.90;;;;;;5042221;28;20049;-76
2023/08/28 03:43:17;;;;;;;2.00;1.75;;;13.10;99.90;;;;;;5060481;28;20178;-75
2023/08/28 03:45:43;;;;;;;2.38;1.40;;;13.10;99.90;;;;;;5057213;28;20118;-76
2023/08/28 03:48:08;;;;;;;1.63;1.40;;;13.10;99.90;;;;;;5033737;28;20186;-77
2023/08/28 03:50:34;;;;;;;2.08;1.13;;;13.10;99.90;;;;;;5061713;28;20049;-75
2023/08/28 03:53:01;;;;;;;1.48;1.35;;;13.10;99.90;;;;;;5045297;28;20041;-77
2023/08/28 03:55:27;;;;;;;1.75;1.33;;;13.10;99.90;;;;;;5061400;28;20179;-75
2023/08/28 03:57:53;;;;;;;2.17;1.48;;;13.10;99.90;;;;;;5062207;28;20604;-76
2023/08/28 04:00:19;;;;;;;1.98;1.38;;;13.10;99.90;;;;;;5055547;28;20048;-76
2023/08/28 04:02:46;;;;;;;1.13;1.02;;;13.10;99.90;;;;;;5061911;28;20037;-77
2023/08/28 04:05:13;;;;;;;1.77;1.48;;;13.10;99.90;;;;;;5059756;28;20064;-76
2023/08/28 04:07:38;;;;;;;1.88;1.45;;;13.10;99.90;;;;;;5052246;28;20053;-76
2023/08/28 04:10:04;;;;;;;3.28;1.92;;;13.10;99.90;;;;;;5048913;28;20456;-76
2023/08/28 04:12:32;;;;;;;3.08;1.33;;;13.10;99.90;;;;;;5025240;28;20049;-75
2023/08/28 04:14:57;;;;;;;2.00;1.77;;;13.10;99.90;;;;;;5041807;28;20578;-76
2023/08/28 04:17:23;;;;;;;1.52;1.13;;;13.10;99.90;;;;;;5049721;28;20037;-75
2023/08/28 04:19:51;;;;;;;2.03;1.42;;;13.10;99.90;;;;;;5035527;28;20487;-76
2023/08/28 04:22:20;;;;;;;2.05;0.90;;;13.10;99.90;;;;;;5051302;28;20102;-75
2023/08/28 04:24:49;;;;;;;1.77;1.13;;;13.10;99.90;;;;;;5044124;28;20486;-76
2023/08/28 04:27:14;;;;;;;2.53;1.35;;;13.10;99.90;;;;;;5043054;28;20080;-76
2023/08/28 04:29:40;;;;;;;3.45;1.90;;;13.10;99.90;;;;;;5042700;28;20491;-78
2023/08/28 04:32:06;;;;;;;2.33;1.55;;;13.10;99.90;;;;;;5041887;28;20053;-76
2023/08/28 04:34:31;;;;;;;2.78;1.35;;;13.00;99.90;;;;;;5025173;28;20496;-75
2023/08/28 04:36:57;;;;;;;3.05;1.48;;;13.10;99.90;;;;;;5043424;28;20085;-76
2023/08/28 04:39:23;;;;;;;6.85;1.42;;;13.10;99.90;;;;;;5045658;28;20037;-75
2023/08/28 04:41:49;;;;;;;1.70;1.58;;;13.00;99.90;;;;;;5045814;28;20080;-76
2023/08/28 04:44:15;;;;;;;1.85;1.67;;;13.00;99.90;;;;;;5046371;28;20116;-75
2023/08/28 04:46:41;;;;;;;1.90;1.65;;;13.00;99.90;;;;;;5046201;28;20124;-76
2023/08/28 04:49:06;;;;;;;3.10;1.48;;;13.00;99.90;;;;;;5046901;28;20041;-76
2023/08/28 04:51:32;;;;;;;2.75;1.55;;;13.00;99.90;;;;;;5028790;28;20419;-76
2023/08/28 04:53:58;;;;;;;3.75;1.60;;;13.00;99.90;;;;;;5046885;28;20040;-76
2023/08/28 04:56:23;;;;;;;1.77;1.60;;;13.00;99.90;;;;;;5056036;28;20488;-75
2023/08/28 04:58:49;;;;;;;1.80;1.38;;;13.00;99.90;;;;;;5050162;28;20500;-75
2023/08/28 05:01:15;;;;;;;1.55;1.30;;;13.00;99.90;;;;;;5052572;28;20037;-76
2023/08/28 05:03:40;;;;;;;2.60;1.40;;;13.00;99.90;;;;;;5056032;28;20048;-75
2023/08/28 05:06:06;;;;;;;2.65;1.77;;;13.00;99.90;;;;;;5033643;28;20072;-76
2023/08/28 05:08:32;;;;;;;4.72;1.75;;;13.00;99.90;;;;;;5040556;28;20153;-75
2023/08/28 05:10:57;;;;;;;1.88;1.23;;;13.00;99.90;;;;;;5044487;28;20510;-74
2023/08/28 05:13:23;;;;;;;3.70;1.60;;;13.00;99.90;;;;;;5043818;28;20056;-77
2023/08/28 05:15:48;;;;;;;1.70;1.30;;;13.00;99.90;;;;;;5043322;28;20049;-74
2023/08/28 05:18:14;;;;;;;2.47;1.50;;;13.00;99.90;;;;;;5048962;28;20049;-74
2023/08/28 05:20:41;;;;;;;4.65;1.92;;;13.00;99.90;;;;;;5049701;28;20048;-75
2023/08/28 05:23:07;;;;;;;3.08;1.83;;;13.00;99.90;;;;;;5053858;28;20060;-74
2023/08/28 05:25:32;;;;;;;3.60;1.90;;;13.00;99.90;;;;;;5044654;28;20491;-75
2023/08/28 05:27:58;;;;;;;2.72;2.10;;;13.10;99.90;;;;;;5059437;28;20114;-74
2023/08/28 05:30:23;;;;;;;5.22;1.95;;;13.10;99.90;;;;;;5062734;28;20125;-74
2023/08/28 05:32:49;;;;;;;2.90;1.77;;;13.10;99.90;;;;;;5056530;28;20045;-75
2023/08/28 05:35:15;;;;;;;1.95;1.58;;;13.20;99.90;;;;;;5051197;28;20094;-72
2023/08/28 05:37:40;;;;;;;2.08;1.85;;;13.20;99.90;;;;;;5056101;28;20071;-75
2023/08/28 05:40:08;;;;;;;2.35;1.90;;;13.20;99.90;;;;;;5048421;28;20713;-74
2023/08/28 05:42:34;;;;;;;4.10;1.83;;;13.30;99.90;;;;;;5046497;28;20045;-75
2023/08/28 05:45:00;;;;;;;2.30;1.50;;;13.30;99.90;;;;;;5043561;28;20051;-75
2023/08/28 05:47:25;;;;;;;3.70;1.75;;;13.30;99.90;;;;;;5049903;28;20124;-74
2023/08/28 05:49:51;;;;;;;2.08;1.27;;;13.40;99.90;;;;;;5040628;28;20887;-74
2023/08/28 05:52:17;;;;;;;2.00;1.75;;;13.40;99.90;;;;;;5034495;28;20148;-72
2023/08/28 05:54:43;;;;;;;2.10;1.90;;;13.50;99.90;;;;;;5037342;28;20510;-74
2023/08/28 05:57:08;;;;;;;2.33;1.80;;;13.50;99.90;;;;;;5040672;28;20037;-75
2023/08/28 05:59:34;;;;;;;3.60;2.67;;;13.50;99.90;;;;;;5036939;28;20402;-73
2023/08/28 06:02:00;;;;;;;4.30;2.28;;;13.60;99.90;;;;;;5037106;28;20045;-73
2023/08/28 06:04:25;;;;;;;3.75;2.22;;;13.60;99.90;;;;;;5042657;28;20028;-76
2023/08/28 06:06:51;;;;;;;3.00;2.35;;;13.70;99.90;;;;;;5045990;28;20091;-73
2023/08/28 06:09:17;;;;;;;5.78;1.88;;;13.70;99.90;;;;;;5058830;28;20044;-74
2023/08/28 06:11:43;;;;;;;2.47;1.75;;;13.70;99.90;;;;;;5052862;28;20047;-74
2023/08/28 06:14:08;;;;;;;2.72;2.05;;;13.80;99.90;;;;;;5050772;28;20585;-76
2023/08/28 06:16:34;;;;;;;2.08;1.73;;;13.80;99.90;;;;;;5049735;28;20036;-75
2023/08/28 06:19:00;;;;;;;3.50;1.85;;;13.80;99.90;;;;;;5055120;28;20373;-74
2023/08/28 06:21:26;;;;;;;3.88;2.42;;;13.90;99.90;;;;;;5050819;28;20058;-75
2023/08/28 06:23:51;;;;;;;3.72;1.80;;;13.90;99.90;;;;;;5039258;28;20087;-75
2023/08/28 06:26:17;;;;;;;3.25;2.25;;;14.00;99.90;;;;;;5042882;28;20049;-74
2023/08/28 06:28:43;;;;;;;3.70;1.92;;;13.90;99.90;;;;;;5043051;28;20486;-74
2023/08/28 06:31:08;;;;;;;4.82;2.63;;;14.00;99.90;;;;;;5053086;28;20033;-76
2023/08/28 06:33:34;;;;;;;4.07;1.85;;;14.00;99.90;;;;;;5032942;28;20091;-75
2023/08/28 06:36:00;;;;;;;3.88;2.30;;;14.10;99.90;;;;;;5054676;28;20048;-74
2023/08/28 06:38:26;;;;;;;4.38;2.30;;;14.10;99.90;;;;;;5057337;28;20052;-75
2023/08/28 06:40:52;;;;;;;3.20;1.50;;;14.20;99.90;;;;;;5061632;28;20040;-75
2023/08/28 06:43:18;;;;;;;3.70;2.22;;;14.20;99.90;;;;;;5052689;28;20088;-74
2023/08/28 06:45:45;;;;;;;2.83;1.60;;;14.30;99.90;;;;;;5043051;28;20091;-75
2023/08/28 06:48:11;;;;;;;2.15;1.70;;;14.30;99.90;;;;;;5057922;28;20325;-74
2023/08/28 06:50:37;;;;;;;2.30;1.65;;;14.40;99.90;;;;;;5058527;28;20041;-75
2023/08/28 06:53:03;;;;;;;4.30;1.98;;;14.40;99.90;;;;;;5062578;28;20241;-75
2023/08/28 06:55:29;;;;;;;7.38;1.85;;;14.50;99.90;;;;;;5046343;28;20360;-75
2023/08/28 06:57:55;;;;;;;2.20;1.45;;;14.50;99.90;;;;;;5054740;28;20029;-75
2023/08/28 07:00:21;;;;;;;2.15;1.30;;;14.60;99.90;;;;;;5024809;28;20465;-75
2023/08/28 07:02:47;;;;;;;1.73;1.60;;;14.60;99.90;;;;;;5053764;28;20048;-75
2023/08/28 07:05:13;;;;;;;1.58;1.00;;;14.70;99.90;;;;;;5042073;28;20044;-75
2023/08/28 07:07:39;;;;;;;3.42;1.13;;;14.80;99.90;;;;;;5043211;28;20111;-75
2023/08/28 07:10:06;;;;;;;3.70;1.20;;;14.80;99.90;;;;;;5025901;28;20684;-75
2023/08/28 07:12:33;;;;;;;3.30;1.40;;;14.90;99.90;;;;;;5033697;28;20056;-74
2023/08/28 07:15:11;;;;;;;1.70;0.98;;;14.90;99.90;;;;;;5050091;28;20283;-75
2023/08/28 07:17:37;;;;;;;2.97;0.95;;;14.90;99.90;;;;;;5039764;28;20040;-74
2023/08/28 07:20:04;;;;;;;3.25;0.82;;;15.00;99.90;;;;;;5048011;28;20045;-75
2023/08/28 07:22:30;;;;;;;1.95;0.90;;;15.10;99.90;;;;;;5041095;28;20416;-75
2023/08/28 07:24:56;;;;;;;1.65;0.80;;;15.10;99.90;;;;;;5043792;28;20037;-75
2023/08/28 07:27:22;;;;;;;3.08;0.95;;;15.10;99.90;;;;;;5049895;28;20085;-75
2023/08/28 07:29:47;;;;;;;0.63;0.40;;;15.20;99.90;;;;;;5060941;28;20170;-75
2023/08/28 07:32:13;;;;;;;2.47;0.80;;;15.20;99.90;;;;;;5045105;28;20527;-74
2023/08/28 07:34:39;;;;;;;1.42;0.60;;;15.20;99.90;;;;;;5057370;28;20609;-75
2023/08/28 07:37:05;;;;;;;3.83;0.80;;;15.30;99.90;;;;;;5049890;28;20037;-75
2023/08/28 07:39:30;;;;;;;3.45;1.20;;;15.30;99.90;;;;;;5042376;28;20041;-75
2023/08/28 07:41:59;;;;;;;3.47;0.60;;;15.40;99.90;;;;;;5042793;28;20056;-75
2023/08/28 07:44:25;;;;;;;0.60;0.35;;;15.40;99.90;;;;;;5040928;28;20399;-75
2023/08/28 07:46:51;;;;;;;13.40;0.75;;;15.50;99.90;;;;;;5041634;28;20033;-74
2023/08/28 07:49:17;;;;;;;0.30;0.30;;;15.50;99.90;;;;;;5042197;28;20392;-74
2023/08/28 07:51:43;;;;;;;0.65;0.55;;;15.60;99.90;;;;;;5029949;28;20123;-74
2023/08/28 07:54:09;;;;;;;0.65;0.52;;;15.60;99.90;;;;;;5061346;28;20139;-75
2023/08/28 07:56:34;;;;;;;0.82;0.50;;;15.70;99.90;;;;;;5048579;28;20045;-74
2023/08/28 07:59:00;;;;;;;0.55;0.50;;;15.70;99.90;;;;;;5047573;28;20029;-74
2023/08/28 08:01:25;;;;;;;1.63;0.75;;;15.80;99.90;;;;;;5040721;28;20045;-73
2023/08/28 08:03:51;;;;;;;0.55;0.38;;;15.80;99.90;;;;;;5057238;28;20283;-73
2023/08/28 08:06:17;;;;;;;1.65;0.50;;;15.80;99.90;;;;;;5052373;28;20048;-74
2023/08/28 08:08:45;;;;;;;1.42;0.82;;;15.90;99.90;;;;;;5042884;28;20534;-72
2023/08/28 08:11:11;;;;;;;1.77;0.75;;;15.90;99.90;;;;;;5049855;28;20029;-73
2023/08/28 08:13:37;;;;;;;0.77;0.50;;;16.00;99.90;;;;;;5064937;28;20045;-76
2023/08/28 08:16:04;;;;;;;1.30;0.55;;;16.00;99.90;;;;;;5046856;28;20474;-71
2023/08/28 08:18:30;;;;;;;1.27;0.60;;;15.90;99.90;;;;;;5045939;28;20076;-73
2023/08/28 08:20:56;;;;;;;0.65;0.45;;;15.90;99.90;;;;;;5045377;28;20387;-74
2023/08/28 08:23:22;;;;;;;0.57;0.43;;;15.90;99.90;;;;;;5047918;28;20476;-72
2023/08/28 08:25:48;;;;;;;1.63;0.70;;;15.90;99.90;;;;;;5042719;28;20033;-73
2023/08/28 08:28:15;;;;;;;1.23;0.40;;;16.00;99.90;;;;;;5035649;28;20045;-73
2023/08/28 08:30:41;;;;;;;1.00;0.38;;;16.10;99.90;;;;;;5038934;28;20037;-73
2023/08/28 08:33:07;;;;;;;0.57;0.50;;;16.20;99.90;;;;;;5046623;28;20044;-72
2023/08/28 08:35:34;;;;;;;2.55;0.80;;;16.30;99.90;;;;;;5045814;28;20037;-74
2023/08/28 08:38:00;;;;;;;0.30;0.30;;;16.30;99.90;;;;;;5044900;28;20056;-71
2023/08/28 08:40:26;;;;;;;0.55;0.50;;;16.30;99.90;;;;;;5044554;28;20053;-73
2023/08/28 08:42:53;;;;;;;1.63;0.47;;;16.30;99.90;;;;;;5044993;28;20080;-73
2023/08/28 08:45:21;;;;;;;1.45;0.70;;;16.30;99.90;;;;;;5045131;28;20048;-72
2023/08/28 08:47:48;;;;;;;1.75;0.60;;;16.30;99.90;;;;;;5043758;28;20041;-72
2023/08/28 08:50:18;;;;;;;0.50;0.50;;;16.30;99.90;;;;;;5048700;28;20044;-72
2023/08/28 08:52:45;;;;;;;1.25;0.68;;;16.30;99.90;;;;;;5047601;28;20080;-78
2023/08/28 08:55:22;;;;;;;1.52;0.68;;;16.40;99.90;;;;;;5046000;28;20045;-77
2023/08/28 08:57:53;;;;;;;0.90;0.50;;;16.40;99.90;;;;;;5044852;28;20132;-76
2023/08/28 09:00:19;;;;;;;1.20;0.50;;;16.50;99.90;;;;;;5027215;28;20033;-74
2023/08/28 09:02:45;;;;;;;1.33;0.45;;;16.50;99.90;;;;;;5041619;28;20049;-74
2023/08/28 09:05:14;;;;;;;0.55;0.52;;;16.50;99.90;;;;;;5041036;28;20467;-73
2023/08/28 09:07:39;;;;;;;1.50;1.00;;;16.50;99.90;;;;;;5054584;28;20049;-74
2023/08/28 09:10:06;;;;;;;2.00;0.52;;;16.60;99.90;;;;;;5045460;28;20580;-72
2023/08/28 09:12:31;;;;;;;0.43;0.43;;;16.60;99.90;;;;;;5051177;28;20123;-74
2023/08/28 09:14:57;;;;;;;0.73;0.73;;;16.70;99.90;;;;;;5037918;28;20232;-72
2023/08/28 09:17:26;;;;;;;1.30;0.70;;;16.70;99.90;;;;;;5037103;28;20037;-74
2023/08/28 09:19:53;;;;;;;2.28;0.77;;;16.70;99.90;;;;;;5043062;28;20071;-72
2023/08/28 09:22:29;;;;;;;0.52;0.52;;;16.70;99.90;;;;;;5045012;28;20041;-71
2023/08/28 09:24:55;;;;;;;0.98;0.70;;;16.70;99.90;;;;;;5028047;28;20052;-72
2023/08/28 09:27:21;;;;;;;0.85;0.30;;;16.80;99.90;;;;;;5043971;28;20087;-74
2023/08/28 09:29:46;;;;;;;0.50;0.50;;;16.80;99.90;;;;;;5042463;28;20045;-71
2023/08/28 09:32:13;;;;;;;1.48;0.40;;;16.80;99.90;;;;;;5044722;28;20036;-74
2023/08/28 09:34:41;;;;;;;0.57;0.45;;;16.80;99.90;;;;;;5046311;28;20591;-73
2023/08/28 09:37:11;;;;;;;1.67;0.50;;;16.80;99.90;;;;;;5045461;28;20155;-72
2023/08/28 09:39:41;;;;;;;0.50;0.50;;;16.80;99.90;;;;;;5045312;28;20057;-73
2023/08/28 09:42:09;;;;;;;0.45;0.38;;;16.90;99.90;;;;;;5042732;28;20277;-72
2023/08/28 09:44:36;;;;;;;0.73;0.50;;;16.90;99.90;;;;;;5042807;28;20033;-72
2023/08/28 09:47:02;;;;;;;0.57;0.30;;;17.00;99.90;;;;;;5045961;28;20090;-74
2023/08/28 09:49:28;;;;;;;0.50;0.50;;;17.10;99.90;;;;;;5042590;28;20044;-72
2023/08/28 09:51:58;;;;;;;1.70;0.50;;;17.20;99.90;;;;;;5038940;28;20044;-74
2023/08/28 09:54:24;;;;;;;0.57;0.50;;;17.20;99.90;;;;;;5044622;28;20049;-72
2023/08/28 09:56:50;;;;;;;0.70;0.50;;;17.30;99.90;;;;;;5043433;28;20439;-72
2023/08/28 09:59:16;;;;;;;0.63;0.30;;;17.30;99.90;;;;;;5030377;28;20183;-73
2023/08/28 10:01:42;;;;;;;0.50;0.47;;;17.20;99.90;;;;;;5028994;28;20044;-72
2023/08/28 10:04:10;;;;;;;0.80;0.50;;;17.20;99.90;;;;;;5042481;28;20045;-75
2023/08/28 10:06:53;;;;;;;0.77;0.60;;;17.10;99.90;;;;;;5027306;28;20106;-72
2023/08/28 10:09:21;;;;;;;0.98;0.70;;;17.10;99.90;;;;;;5043793;28;20052;-71
2023/08/28 10:11:50;;;;;;;2.08;0.80;;;17.10;99.90;;;;;;5027367;28;20436;-72
2023/08/28 10:14:17;;;;;;;2.05;0.77;;;17.10;99.90;;;;;;5043653;28;20056;-72
2023/08/28 10:16:48;;;;;;;1.60;0.50;;;17.20;99.90;;;;;;5022637;28;20491;-73
2023/08/28 10:19:17;;;;;;;2.20;0.60;;;17.30;99.90;;;;;;5048649;28;20087;-71
2023/08/28 10:21:44;;;;;;;1.40;0.88;;;17.30;99.90;;;;;;5051660;28;20041;-71
2023/08/28 10:24:13;;;;;;;0.93;0.52;;;17.30;99.90;;;;;;5045097;28;20071;-71
2023/08/28 10:26:40;;;;;;;2.05;0.82;;;17.40;99.90;;;;;;5025241;28;20483;-74
2023/08/28 10:29:07;;;;;;;1.08;0.40;;;17.40;99.90;;;;;;5041915;28;20049;-74
2023/08/28 10:31:35;;;;;;;0.57;0.57;;;17.50;99.90;;;;;;5047760;28;20401;-71
2023/08/28 10:34:01;;;;;;;0.40;0.40;;;17.60;99.90;;;;;;5043065;28;20051;-71
2023/08/28 10:36:29;;;;;;;0.32;0.32;;;17.70;99.90;;;;;;5025570;28;20057;-70
2023/08/28 10:38:55;;;;;;;0.95;0.43;;;17.70;99.90;;;;;;5040208;28;20044;-70
2023/08/28 10:41:21;;;;;;;2.97;0.80;;;17.80;99.90;;;;;;5036857;28;20166;-73
2023/08/28 10:43:51;;;;;;;1.00;0.50;;;17.80;99.90;;;;;;5028498;28;20052;-70
2023/08/28 10:46:18;;;;;;;1.85;0.50;;;17.70;99.90;;;;;;5038544;28;20045;-71
2023/08/28 10:48:45;;;;;;;3.10;0.73;;;17.60;99.90;;;;;;5041624;28;20041;-72
2023/08/28 10:51:12;;;;;;;1.80;1.20;;;17.50;99.90;;;;;;5021166;28;20745;-71
2023/08/28 10:53:38;;;;;;;3.17;0.60;;;17.40;99.90;;;;;;5038816;28;20480;-73
2023/08/28 10:56:05;;;;;;;1.73;0.50;;;17.40;99.90;;;;;;5036019;28;20473;-71
2023/08/28 10:58:36;;;;;;;1.83;0.35;;;17.30;99.90;;;;;;5048967;28;20045;-70
2023/08/28 11:01:15;;;;;;;0.52;0.32;;;17.30;99.90;;;;;;5039473;28;20049;-71
2023/08/28 11:03:56;;;;;;;1.55;0.50;;;17.30;99.90;;;;;;5025799;28;20041;-71
2023/08/28 11:06:43;;;;;;;0.30;0.30;;;17.30;99.90;;;;;;5036387;28;20053;-72
2023/08/28 11:09:28;;;;;;;0.85;0.47;;;17.20;99.90;;;;;;5032447;28;20045;-71
2023/08/28 11:12:02;;;;;;;1.52;0.45;;;17.20;99.90;;;;;;5035135;28;20068;-70
2023/08/28 11:14:38;;;;;;;1.63;0.50;;;17.30;99.90;;;;;;5039832;28;20057;-70
2023/08/28 11:17:11;;;;;;;2.92;0.65;;;17.30;99.90;;;;;;5025569;28;20324;-71
2023/08/28 11:19:57;;;;;;;1.63;0.47;;;17.30;99.90;;;;;;5042531;28;20040;-71
2023/08/28 11:22:41;;;;;;;0.70;0.45;;;17.20;99.90;;;;;;5030554;28;20077;-70
2023/08/28 11:25:09;;;;;;;0.40;0.40;;;17.20;99.90;;;;;;5043233;28;20048;-72
2023/08/28 11:27:42;;;;;;;1.30;0.40;;;17.20;99.90;;;;;;5042802;28;20569;-74
2023/08/28 11:30:08;;;;;;;1.00;0.20;;;17.20;99.90;;;;;;5040832;28;20522;-75
2023/08/28 11:32:36;;;;;;;0.65;0.47;;;17.20;99.90;;;;;;5028709;28;20033;-72
2023/08/28 11:35:15;;;;;;;0.75;0.75;;;17.30;99.90;;;;;;5031921;28;20044;-71
2023/08/28 11:37:42;;;;;;;1.13;0.30;;;17.30;99.90;;;;;;5039838;28;20383;-72
2023/08/28 11:40:09;;;;;;;0.88;0.43;;;17.30;99.90;;;;;;5029734;28;20087;-72
2023/08/28 11:42:38;;;;;;;0.50;0.40;;;17.40;99.90;;;;;;5016014;28;20046;-72
2023/08/28 11:45:07;;;;;;;0.95;0.60;;;17.40;99.90;;;;;;5021989;28;20609;-71
2023/08/28 11:47:34;;;;;;;0.90;0.30;;;17.50;99.90;;;;;;5038412;28;20051;-71
2023/08/28 11:50:00;;;;;;;1.73;0.30;;;17.60;99.90;;;;;;5041355;28;20045;-71
2023/08/28 11:52:26;;;;;;;1.00;0.50;;;17.70;99.90;;;;;;5025215;28;20045;-76
2023/08/28 11:54:58;;;;;;;2.65;0.80;;;17.80;99.90;;;;;;5025314;28;20041;-73
2023/08/28 11:57:25;;;;;;;0.57;0.30;;;17.90;99.90;;;;;;5022331;28;20041;-73
2023/08/28 11:59:55;;;;;;;1.20;0.38;;;18.00;99.90;;;;;;5023164;28;20284;-74
2023/08/28 12:02:21;;;;;;;0.38;0.38;;;18.10;99.90;;;;;;5037796;28;20051;-74
2023/08/28 12:04:50;;;;;;;1.23;0.30;;;18.20;99.90;;;;;;5004019;28;20041;-74
2023/08/28 12:07:17;;;;;;;0.30;0.30;;;18.20;99.90;;;;;;5034134;28;20395;-76
2023/08/28 12:09:44;;;;;;;0.65;0.65;;;18.20;99.90;;;;;;5041622;28;20487;-73
2023/08/28 12:12:09;;;;;;;1.15;0.40;;;18.20;99.90;;;;;;5011914;28;20412;-73
2023/08/28 12:14:35;;;;;;;1.08;0.38;;;18.20;99.90;;;;;;5040821;28;20056;-73
2023/08/28 12:17:01;;;;;;;0.75;0.38;;;18.20;99.90;;;;;;5039078;28;20033;-73
2023/08/28 12:19:27;;;;;;;0.35;0.35;;;18.20;99.90;;;;;;5034565;28;20045;-74
2023/08/28 12:22:06;;;;;;;0.82;0.50;;;18.20;99.90;;;;;;5022916;28;20084;-72
2023/08/28 12:24:31;;;;;;;0.30;0.30;;;18.30;99.90;;;;;;5034911;28;20049;-74
2023/08/28 12:26:57;;;;;;;2.28;0.43;;;18.40;99.90;;;;;;5041670;28;20053;-72
2023/08/28 12:29:26;;;;;;;1.50;0.40;;;18.40;99.90;;;;;;5041526;28;20588;-73
2023/08/28 12:31:52;;;;;;;1.17;0.60;;;18.50;99.90;;;;;;5037862;28;20065;-73
2023/08/28 12:34:18;;;;;;;0.30;0.30;;;18.40;99.90;;;;;;5037350;28;20454;-73
2023/08/28 12:36:46;;;;;;;1.10;0.55;;;18.40;99.90;;;;;;5037129;28;20090;-73
2023/08/28 12:39:15;;;;;;;1.48;0.60;;;18.40;99.90;;;;;;5034534;28;20092;-75
2023/08/28 12:41:53;;;;;;;1.98;0.80;;;18.30;99.90;;;;;;5041909;28;20494;-74
2023/08/28 12:44:19;;;;;;;0.47;0.45;;;18.30;99.90;;;;;;5039828;28;20041;-74
2023/08/28 12:46:45;;;;;;;4.90;0.90;;;18.30;99.90;;;;;;5021171;28;20034;-75
2023/08/28 12:49:12;;;;;;;3.33;2.08;;;18.30;99.90;;;;;;5004438;28;20052;-75